sensor_id;sensor_type;location;lat;lon;timestamp;temperature;humidity
22418;DHT22;11376;50.932;4.442;2023-04-06T00:01:31;9.00;99.90
22418;DHT22;11376;50.932;4.442;2023-04-06T00:03:57;9.10;99.90
22418;DHT22;11376;50.932;4.442;2023-04-06T00:06:22;9.10;99.90
22418;DHT22;11376;50.932;4.442;2023-04-06T00:08:48;9.10;99.90
22418;DHT22;11376;50.932;4.442;2023-04-06T00:11:14;9.20;99.90
22418;DHT22;11376;50.932;4.442;2023-04-06T00:13:40;9.20;99.90
22418;DHT22;11376;50.932;4.442;2023-04-06T00:16:05;9.20;99.90
22418;DHT22;11376;50.932;4.442;2023-04-06T00:18:31;9.30;99.90
22418;DHT22;11376;50.932;4.442;2023-04-06T00:20:57;9.20;99.90
22418;DHT22;11376;50.932;4.442;2023-04-06T00:23:23;9.00;99.90
22418;DHT22;11376;50.932;4.442;2023-04-06T00:25:49;9.10;99.90
22418;DHT22;11376;50.932;4.442;2023-04-06T00:28:14;9.00;99.90
22418;DHT22;11376;50.932;4.442;2023-04-06T00:30:41;8.90;99.90
22418;DHT22;11376;50.932;4.442;2023-04-06T00:33:07;8.90;99.90
22418;DHT22;11376;50.932;4.442;2023-04-06T00:35:32;8.70;99.90
22418;DHT22;11376;50.932;4.442;2023-04-06T00:37:58;8.60;99.90
22418;DHT22;11376;50.932;4.442;2023-04-06T00:40:24;8.40;99.90
22418;DHT22;11376;50.932;4.442;2023-04-06T00:42:50;8.30;99.90
22418;DHT22;11376;50.932;4.442;2023-04-06T00:45:16;8.30;99.90
22418;DHT22;11376;50.932;4.442;2023-04-06T00:47:41;8.30;99.90
22418;DHT22;11376;50.932;4.442;2023-04-06T00:50:07;8.30;99.90
22418;DHT22;11376;50.932;4.442;2023-04-06T00:52:34;8.30;99.90
22418;DHT22;11376;50.932;4.442;2023-04-06T00:55:00;8.30;99.90
22418;DHT22;11376;50.932;4.442;2023-04-06T00:57:25;8.30;99.90
22418;DHT22;11376;50.932;4.442;2023-04-06T00:59:52;8.30;99.90
22418;DHT22;11376;50.932;4.442;2023-04-06T01:02:18;8.20;99.90
22418;DHT22;11376;50.932;4.442;2023-04-06T01:04:45;8.20;99.90
22418;DHT22;11376;50.932;4.442;2023-04-06T01:07:11;8.30;99.90
22418;DHT22;11376;50.932;4.442;2023-04-06T01:09:36;8.30;99.90
22418;DHT22;11376;50.932;4.442;2023-04-06T01:12:02;8.40;99.90
22418;DHT22;11376;50.932;4.442;2023-04-06T01:14:29;8.40;99.90
22418;DHT22;11376;50.932;4.442;2023-04-06T01:16:58;8.50;99.90
22418;DHT22;11376;50.932;4.442;2023-04-06T01:19:25;8.40;99.90
22418;DHT22;11376;50.932;4.442;2023-04-06T01:21:51;8.40;99.90
22418;DHT22;11376;50.932;4.442;2023-04-06T01:24:18;8.40;99.90
22418;DHT22;11376;50.932;4.442;2023-04-06T01:26:44;8.30;99.90
22418;DHT22;11376;50.932;4.442;2023-04-06T01:29:10;8.40;99.90
22418;DHT22;11376;50.932;4.442;2023-04-06T01:31:36;8.40;99.90
22418;DHT22;11376;50.932;4.442;2023-04-06T01:34:01;8.50;99.90
22418;DHT22;11376;50.932;4.442;2023-04-06T01:36:27;8.40;99.90
22418;DHT22;11376;50.932;4.442;2023-04-06T01:38:53;8.40;99.90
22418;DHT22;11376;50.932;4.442;2023-04-06T01:41:18;8.40;99.90
22418;DHT22;11376;50.932;4.442;2023-04-06T01:43:44;8.40;99.90
22418;DHT22;11376;50.932;4.442;2023-04-06T01:46:10;8.40;99.90
22418;DHT22;11376;50.932;4.442;2023-04-06T01:48:36;8.40;99.90
22418;DHT22;11376;50.932;4.442;2023-04-06T01:51:02;8.30;99.90
22418;DHT22;11376;50.932;4.442;2023-04-06T01:53:27;8.30;99.90
22418;DHT22;11376;50.932;4.442;2023-04-06T01:55:53;8.30;99.90
22418;DHT22;11376;50.932;4.442;2023-04-06T01:58:18;8.30;99.90
22418;DHT22;11376;50.932;4.442;2023-04-06T02:00:44;8.20;99.90
22418;DHT22;11376;50.932;4.442;2023-04-06T02:03:10;8.30;99.90
22418;DHT22;11376;50.932;4.442;2023-04-06T02:05:35;8.30;99.90
22418;DHT22;11376;50.932;4.442;2023-04-06T02:08:06;8.30;99.90
22418;DHT22;11376;50.932;4.442;2023-04-06T02:10:33;8.30;99.90
22418;DHT22;11376;50.932;4.442;2023-04-06T02:12:59;8.30;99.90
22418;DHT22;11376;50.932;4.442;2023-04-06T02:15:25;8.20;99.90
22418;DHT22;11376;50.932;4.442;2023-04-06T02:17:51;8.20;99.90
22418;DHT22;11376;50.932;4.442;2023-04-06T02:20:17;8.20;99.90
22418;DHT22;11376;50.932;4.442;2023-04-06T02:22:43;8.20;99.90
22418;DHT22;11376;50.932;4.442;2023-04-06T02:25:08;8.20;99.90
22418;DHT22;11376;50.932;4.442;2023-04-06T02:27:35;8.20;99.90
22418;DHT22;11376;50.932;4.442;2023-04-06T02:30:01;8.20;99.90
22418;DHT22;11376;50.932;4.442;2023-04-06T02:32:27;8.20;99.90
22418;DHT22;11376;50.932;4.442;2023-04-06T02:34:53;8.20;99.90
22418;DHT22;11376;50.932;4.442;2023-04-06T02:37:18;8.20;99.90
22418;DHT22;11376;50.932;4.442;2023-04-06T02:39:45;8.20;99.90
22418;DHT22;11376;50.932;4.442;2023-04-06T02:42:10;8.20;99.90
22418;DHT22;11376;50.932;4.442;2023-04-06T02:44:36;8.10;99.90
22418;DHT22;11376;50.932;4.442;2023-04-06T02:47:02;8.10;99.90
22418;DHT22;11376;50.932;4.442;2023-04-06T02:49:27;8.10;99.90
22418;DHT22;11376;50.932;4.442;2023-04-06T02:51:53;8.10;99.90
22418;DHT22;11376;50.932;4.442;2023-04-06T02:54:18;8.00;99.90
22418;DHT22;11376;50.932;4.442;2023-04-06T02:56:44;8.00;99.90
22418;DHT22;11376;50.932;4.442;2023-04-06T02:59:10;8.00;99.90
22418;DHT22;11376;50.932;4.442;2023-04-06T03:01:36;7.90;99.90
22418;DHT22;11376;50.932;4.442;2023-04-06T03:04:02;7.90;99.90
22418;DHT22;11376;50.932;4.442;2023-04-06T03:06:28;7.90;99.90
22418;DHT22;11376;50.932;4.442;2023-04-06T03:08:53;7.90;99.90
22418;DHT22;11376;50.932;4.442;2023-04-06T03:11:19;7.80;99.90
22418;DHT22;11376;50.932;4.442;2023-04-06T03:13:44;7.80;99.90
22418;DHT22;11376;50.932;4.442;2023-04-06T03:16:10;7.70;99.90
22418;DHT22;11376;50.932;4.442;2023-04-06T03:18:36;7.70;99.90
22418;DHT22;11376;50.932;4.442;2023-04-06T03:21:01;7.60;99.90
22418;DHT22;11376;50.932;4.442;2023-04-06T03:23:27;7.60;99.90
22418;DHT22;11376;50.932;4.442;2023-04-06T03:25:53;7.60;99.90
22418;DHT22;11376;50.932;4.442;2023-04-06T03:28:19;7.60;99.90
22418;DHT22;11376;50.932;4.442;2023-04-06T03:30:45;7.50;99.90
22418;DHT22;11376;50.932;4.442;2023-04-06T03:33:11;7.50;99.90
22418;DHT22;11376;50.932;4.442;2023-04-06T03:35:37;7.50;99.90
22418;DHT22;11376;50.932;4.442;2023-04-06T03:38:03;7.60;99.90
22418;DHT22;11376;50.932;4.442;2023-04-06T03:40:30;7.50;99.90
22418;DHT22;11376;50.932;4.442;2023-04-06T03:42:56;7.40;99.90
22418;DHT22;11376;50.932;4.442;2023-04-06T03:45:21;7.40;99.90
22418;DHT22;11376;50.932;4.442;2023-04-06T03:47:47;7.40;99.90
22418;DHT22;11376;50.932;4.442;2023-04-06T03:50:13;7.40;99.90
22418;DHT22;11376;50.932;4.442;2023-04-06T03:52:39;7.40;99.90
22418;DHT22;11376;50.932;4.442;2023-04-06T03:55:05;7.40;99.90
22418;DHT22;11376;50.932;4.442;2023-04-06T03:57:31;7.40;99.90
22418;DHT22;11376;50.932;4.442;2023-04-06T03:59:56;7.40;99.90
22418;DHT22;11376;50.932;4.442;2023-04-06T04:02:22;7.40;99.90
22418;DHT22;11376;50.932;4.442;2023-04-06T04:04:48;7.40;99.90
22418;DHT22;11376;50.932;4.442;2023-04-06T04:07:13;7.50;99.90
22418;DHT22;11376;50.932;4.442;2023-04-06T04:09:39;7.50;99.90
22418;DHT22;11376;50.932;4.442;2023-04-06T04:12:05;7.60;99.90
22418;DHT22;11376;50.932;4.442;2023-04-06T04:14:31;7.70;99.90
22418;DHT22;11376;50.932;4.442;2023-04-06T04:16:57;7.60;99.90
22418;DHT22;11376;50.932;4.442;2023-04-06T04:19:22;7.60;99.90
22418;DHT22;11376;50.932;4.442;2023-04-06T04:21:48;7.60;99.90
22418;DHT22;11376;50.932;4.442;2023-04-06T04:24:14;7.50;99.90
22418;DHT22;11376;50.932;4.442;2023-04-06T04:26:40;7.60;99.90
22418;DHT22;11376;50.932;4.442;2023-04-06T04:29:06;7.80;99.90
22418;DHT22;11376;50.932;4.442;2023-04-06T04:31:32;7.80;99.90
22418;DHT22;11376;50.932;4.442;2023-04-06T04:33:59;7.80;99.90
22418;DHT22;11376;50.932;4.442;2023-04-06T04:36:25;7.80;99.90
22418;DHT22;11376;50.932;4.442;2023-04-06T04:38:51;7.80;99.90
22418;DHT22;11376;50.932;4.442;2023-04-06T04:41:17;7.90;99.90
22418;DHT22;11376;50.932;4.442;2023-04-06T04:43:42;8.00;99.90
22418;DHT22;11376;50.932;4.442;2023-04-06T04:46:08;8.00;99.90
22418;DHT22;11376;50.932;4.442;2023-04-06T04:48:34;8.20;99.90
22418;DHT22;11376;50.932;4.442;2023-04-06T04:51:00;8.10;99.90
22418;DHT22;11376;50.932;4.442;2023-04-06T04:53:25;8.10;99.90
22418;DHT22;11376;50.932;4.442;2023-04-06T04:55:51;8.00;99.90
22418;DHT22;11376;50.932;4.442;2023-04-06T04:58:17;8.00;99.90
22418;DHT22;11376;50.932;4.442;2023-04-06T05:00:45;8.00;99.90
22418;DHT22;11376;50.932;4.442;2023-04-06T05:03:18;8.00;99.90
22418;DHT22;11376;50.932;4.442;2023-04-06T05:05:44;8.00;99.90
22418;DHT22;11376;50.932;4.442;2023-04-06T05:08:11;8.00;99.90
22418;DHT22;11376;50.932;4.442;2023-04-06T05:10:37;8.00;99.90
22418;DHT22;11376;50.932;4.442;2023-04-06T05:13:03;8.10;99.90
22418;DHT22;11376;50.932;4.442;2023-04-06T05:15:29;8.20;99.90
22418;DHT22;11376;50.932;4.442;2023-04-06T05:17:54;8.20;99.90
22418;DHT22;11376;50.932;4.442;2023-04-06T05:20:20;8.20;99.90
22418;DHT22;11376;50.932;4.442;2023-04-06T05:22:46;8.20;99.90
22418;DHT22;11376;50.932;4.442;2023-04-06T05:25:13;8.30;99.90
22418;DHT22;11376;50.932;4.442;2023-04-06T05:27:38;8.30;99.90
22418;DHT22;11376;50.932;4.442;2023-04-06T05:30:06;8.30;99.90
22418;DHT22;11376;50.932;4.442;2023-04-06T05:32:31;8.20;99.90
22418;DHT22;11376;50.932;4.442;2023-04-06T05:34:57;8.20;99.90
22418;DHT22;11376;50.932;4.442;2023-04-06T05:37:23;8.20;99.90
22418;DHT22;11376;50.932;4.442;2023-04-06T05:39:48;8.30;99.90
22418;DHT22;11376;50.932;4.442;2023-04-06T05:42:15;8.30;99.90
22418;DHT22;11376;50.932;4.442;2023-04-06T05:44:41;8.30;99.90
22418;DHT22;11376;50.932;4.442;2023-04-06T05:47:06;8.30;99.90
22418;DHT22;11376;50.932;4.442;2023-04-06T05:49:32;8.30;99.90
22418;DHT22;11376;50.932;4.442;2023-04-06T05:51:58;8.20;99.90
22418;DHT22;11376;50.932;4.442;2023-04-06T05:54:30;8.30;99.90
22418;DHT22;11376;50.932;4.442;2023-04-06T05:56:55;8.30;99.90
22418;DHT22;11376;50.932;4.442;2023-04-06T05:59:21;8.30;99.90
22418;DHT22;11376;50.932;4.442;2023-04-06T06:01:47;8.30;99.90
22418;DHT22;11376;50.932;4.442;2023-04-06T06:04:12;8.30;99.90
22418;DHT22;11376;50.932;4.442;2023-04-06T06:06:38;8.40;99.90
22418;DHT22;11376;50.932;4.442;2023-04-06T06:09:03;8.40;99.90
22418;DHT22;11376;50.932;4.442;2023-04-06T06:11:29;8.40;99.90
22418;DHT22;11376;50.932;4.442;2023-04-06T06:13:55;8.40;99.90
22418;DHT22;11376;50.932;4.442;2023-04-06T06:16:21;8.40;99.90
22418;DHT22;11376;50.932;4.442;2023-04-06T06:18:47;8.40;99.90
22418;DHT22;11376;50.932;4.442;2023-04-06T06:21:12;8.40;99.90
22418;DHT22;11376;50.932;4.442;2023-04-06T06:23:39;8.40;99.90
22418;DHT22;11376;50.932;4.442;2023-04-06T06:26:04;8.50;99.90
22418;DHT22;11376;50.932;4.442;2023-04-06T06:28:30;8.50;99.90
22418;DHT22;11376;50.932;4.442;2023-04-06T06:30:56;8.50;99.90
22418;DHT22;11376;50.932;4.442;2023-04-06T06:33:22;8.50;99.90
22418;DHT22;11376;50.932;4.442;2023-04-06T06:35:48;8.60;99.90
22418;DHT22;11376;50.932;4.442;2023-04-06T06:38:13;8.60;99.90
22418;DHT22;11376;50.932;4.442;2023-04-06T06:40:40;8.60;99.90
22418;DHT22;11376;50.932;4.442;2023-04-06T06:43:06;8.60;99.90
22418;DHT22;11376;50.932;4.442;2023-04-06T06:45:32;8.60;99.90
22418;DHT22;11376;50.932;4.442;2023-04-06T06:47:58;8.50;99.90
22418;DHT22;11376;50.932;4.442;2023-04-06T06:50:23;8.50;99.90
22418;DHT22;11376;50.932;4.442;2023-04-06T06:52:49;8.50;99.90
22418;DHT22;11376;50.932;4.442;2023-04-06T06:55:15;8.50;99.90
22418;DHT22;11376;50.932;4.442;2023-04-06T06:57:40;8.40;99.90
22418;DHT22;11376;50.932;4.442;2023-04-06T07:00:08;8.50;99.90
22418;DHT22;11376;50.932;4.442;2023-04-06T07:02:35;8.60;99.90
22418;DHT22;11376;50.932;4.442;2023-04-06T07:05:03;8.50;99.90
22418;DHT22;11376;50.932;4.442;2023-04-06T07:07:31;8.50;99.90
22418;DHT22;11376;50.932;4.442;2023-04-06T07:09:57;8.50;99.90
22418;DHT22;11376;50.932;4.442;2023-04-06T07:12:22;8.50;99.90
22418;DHT22;11376;50.932;4.442;2023-04-06T07:14:48;8.50;99.90
22418;DHT22;11376;50.932;4.442;2023-04-06T07:17:14;8.40;99.90
22418;DHT22;11376;50.932;4.442;2023-04-06T07:19:39;8.30;99.90
22418;DHT22;11376;50.932;4.442;2023-04-06T07:22:06;8.20;99.90
22418;DHT22;11376;50.932;4.442;2023-04-06T07:24:31;8.20;99.90
22418;DHT22;11376;50.932;4.442;2023-04-06T07:26:58;8.20;99.90
22418;DHT22;11376;50.932;4.442;2023-04-06T07:29:26;8.20;99.90
22418;DHT22;11376;50.932;4.442;2023-04-06T07:31:51;8.20;99.90
22418;DHT22;11376;50.932;4.442;2023-04-06T07:34:17;8.40;99.90
22418;DHT22;11376;50.932;4.442;2023-04-06T07:36:43;8.40;99.90
22418;DHT22;11376;50.932;4.442;2023-04-06T07:39:08;8.50;99.90
22418;DHT22;11376;50.932;4.442;2023-04-06T07:41:34;8.50;99.90
22418;DHT22;11376;50.932;4.442;2023-04-06T07:44:00;8.60;99.90
22418;DHT22;11376;50.932;4.442;2023-04-06T07:46:25;8.70;99.90
22418;DHT22;11376;50.932;4.442;2023-04-06T07:48:51;8.70;99.90
22418;DHT22;11376;50.932;4.442;2023-04-06T07:51:17;8.70;99.90
22418;DHT22;11376;50.932;4.442;2023-04-06T07:53:44;8.90;99.90
22418;DHT22;11376;50.932;4.442;2023-04-06T07:56:10;8.90;99.90
22418;DHT22;11376;50.932;4.442;2023-04-06T07:58:35;9.00;99.90
22418;DHT22;11376;50.932;4.442;2023-04-06T08:01:01;8.90;99.90
22418;DHT22;11376;50.932;4.442;2023-04-06T08:03:27;8.90;99.90
22418;DHT22;11376;50.932;4.442;2023-04-06T08:05:53;8.90;99.90
22418;DHT22;11376;50.932;4.442;2023-04-06T08:08:19;8.70;99.90
22418;DHT22;11376;50.932;4.442;2023-04-06T08:10:49;8.70;99.90
22418;DHT22;11376;50.932;4.442;2023-04-06T08:13:14;8.60;99.90
22418;DHT22;11376;50.932;4.442;2023-04-06T08:15:41;8.60;99.90
22418;DHT22;11376;50.932;4.442;2023-04-06T08:18:07;8.60;99.90
22418;DHT22;11376;50.932;4.442;2023-04-06T08:20:33;8.60;99.90
22418;DHT22;11376;50.932;4.442;2023-04-06T08:22:59;8.60;99.90
22418;DHT22;11376;50.932;4.442;2023-04-06T08:25:25;8.70;99.90
22418;DHT22;11376;50.932;4.442;2023-04-06T08:27:51;8.70;99.90
22418;DHT22;11376;50.932;4.442;2023-04-06T08:30:17;8.70;99.90
22418;DHT22;11376;50.932;4.442;2023-04-06T08:32:44;8.60;99.90
22418;DHT22;11376;50.932;4.442;2023-04-06T08:35:10;8.50;99.90
22418;DHT22;11376;50.932;4.442;2023-04-06T08:37:36;8.60;99.90
22418;DHT22;11376;50.932;4.442;2023-04-06T08:40:02;8.40;99.90
22418;DHT22;11376;50.932;4.442;2023-04-06T08:42:32;8.40;99.90
22418;DHT22;11376;50.932;4.442;2023-04-06T08:44:59;8.40;99.90
22418;DHT22;11376;50.932;4.442;2023-04-06T08:47:25;8.30;99.90
22418;DHT22;11376;50.932;4.442;2023-04-06T08:49:52;8.30;99.90
22418;DHT22;11376;50.932;4.442;2023-04-06T08:52:18;8.20;99.90
22418;DHT22;11376;50.932;4.442;2023-04-06T08:54:44;8.30;99.90
22418;DHT22;11376;50.932;4.442;2023-04-06T08:57:10;8.30;99.90
22418;DHT22;11376;50.932;4.442;2023-04-06T08:59:36;8.40;99.90
22418;DHT22;11376;50.932;4.442;2023-04-06T09:02:04;8.60;99.90
22418;DHT22;11376;50.932;4.442;2023-04-06T09:04:33;8.50;99.90
22418;DHT22;11376;50.932;4.442;2023-04-06T09:07:00;8.50;99.90
22418;DHT22;11376;50.932;4.442;2023-04-06T09:09:26;8.60;99.90
22418;DHT22;11376;50.932;4.442;2023-04-06T09:11:52;8.50;99.90
22418;DHT22;11376;50.932;4.442;2023-04-06T09:14:36;8.40;99.90
22418;DHT22;11376;50.932;4.442;2023-04-06T09:17:02;8.50;99.90
22418;DHT22;11376;50.932;4.442;2023-04-06T09:19:28;8.50;99.90
22418;DHT22;11376;50.932;4.442;2023-04-06T09:22:04;8.60;99.90
22418;DHT22;11376;50.932;4.442;2023-04-06T09:24:40;8.40;99.90
22418;DHT22;11376;50.932;4.442;2023-04-06T09:27:06;8.60;99.90
22418;DHT22;11376;50.932;4.442;2023-04-06T09:29:31;8.70;99.90
22418;DHT22;11376;50.932;4.442;2023-04-06T09:32:04;8.80;99.90
22418;DHT22;11376;50.932;4.442;2023-04-06T09:34:31;8.70;99.90
22418;DHT22;11376;50.932;4.442;2023-04-06T09:36:57;8.70;99.90
22418;DHT22;11376;50.932;4.442;2023-04-06T09:39:23;8.70;99.90
22418;DHT22;11376;50.932;4.442;2023-04-06T09:41:53;8.60;99.90
22418;DHT22;11376;50.932;4.442;2023-04-06T09:44:19;8.70;99.90
22418;DHT22;11376;50.932;4.442;2023-04-06T09:46:46;8.60;99.90
22418;DHT22;11376;50.932;4.442;2023-04-06T09:49:13;8.60;99.90
22418;DHT22;11376;50.932;4.442;2023-04-06T09:54:07;8.70;99.90
22418;DHT22;11376;50.932;4.442;2023-04-06T09:56:45;8.70;99.90
22418;DHT22;11376;50.932;4.442;2023-04-06T09:59:21;8.80;99.90
22418;DHT22;11376;50.932;4.442;2023-04-06T10:01:51;8.60;99.90
22418;DHT22;11376;50.932;4.442;2023-04-06T10:06:55;8.60;99.90
22418;DHT22;11376;50.932;4.442;2023-04-06T10:09:24;8.70;99.90
22418;DHT22;11376;50.932;4.442;2023-04-06T10:11:51;8.60;99.90
22418;DHT22;11376;50.932;4.442;2023-04-06T10:14:17;8.60;99.90
22418;DHT22;11376;50.932;4.442;2023-04-06T10:16:43;8.60;99.90
22418;DHT22;11376;50.932;4.442;2023-04-06T10:19:24;8.50;99.90
22418;DHT22;11376;50.932;4.442;2023-04-06T10:21:54;8.40;99.90
22418;DHT22;11376;50.932;4.442;2023-04-06T10:24:21;8.50;99.90
22418;DHT22;11376;50.932;4.442;2023-04-06T10:27:06;8.50;99.90
22418;DHT22;11376;50.932;4.442;2023-04-06T10:29:46;8.50;99.90
22418;DHT22;11376;50.932;4.442;2023-04-06T10:32:12;8.50;99.90
22418;DHT22;11376;50.932;4.442;2023-04-06T10:34:38;8.50;99.90
22418;DHT22;11376;50.932;4.442;2023-04-06T10:37:14;8.50;99.90
22418;DHT22;11376;50.932;4.442;2023-04-06T10:39:53;8.50;99.90
22418;DHT22;11376;50.932;4.442;2023-04-06T10:42:37;8.40;99.90
22418;DHT22;11376;50.932;4.442;2023-04-06T10:45:06;8.50;99.90
22418;DHT22;11376;50.932;4.442;2023-04-06T10:47:40;8.50;99.90
22418;DHT22;11376;50.932;4.442;2023-04-06T10:50:06;8.60;99.90
22418;DHT22;11376;50.932;4.442;2023-04-06T10:52:32;8.70;99.90
22418;DHT22;11376;50.932;4.442;2023-04-06T10:54:57;8.70;99.90
22418;DHT22;11376;50.932;4.442;2023-04-06T10:57:29;8.80;99.90
22418;DHT22;11376;50.932;4.442;2023-04-06T10:59:56;8.90;99.90
22418;DHT22;11376;50.932;4.442;2023-04-06T11:02:21;8.70;99.90
22418;DHT22;11376;50.932;4.442;2023-04-06T11:04:57;8.70;99.90
22418;DHT22;11376;50.932;4.442;2023-04-06T11:07:27;8.70;99.90
22418;DHT22;11376;50.932;4.442;2023-04-06T11:09:54;8.80;99.90
22418;DHT22;11376;50.932;4.442;2023-04-06T11:12:24;8.80;99.90
22418;DHT22;11376;50.932;4.442;2023-04-06T11:15:01;8.70;99.90
22418;DHT22;11376;50.932;4.442;2023-04-06T11:17:30;8.90;99.90
22418;DHT22;11376;50.932;4.442;2023-04-06T11:19:57;8.90;99.90
22418;DHT22;11376;50.932;4.442;2023-04-06T11:22:23;8.90;99.90
22418;DHT22;11376;50.932;4.442;2023-04-06T11:24:49;9.00;99.90
22418;DHT22;11376;50.932;4.442;2023-04-06T11:27:15;9.00;99.90
22418;DHT22;11376;50.932;4.442;2023-04-06T11:29:42;9.10;99.90
22418;DHT22;11376;50.932;4.442;2023-04-06T11:32:07;9.10;99.90
22418;DHT22;11376;50.932;4.442;2023-04-06T11:34:37;9.10;99.90
22418;DHT22;11376;50.932;4.442;2023-04-06T11:37:13;9.10;99.90
22418;DHT22;11376;50.932;4.442;2023-04-06T11:39:46;9.10;99.90
22418;DHT22;11376;50.932;4.442;2023-04-06T11:42:11;9.10;99.90
22418;DHT22;11376;50.932;4.442;2023-04-06T11:44:40;9.10;99.90
22418;DHT22;11376;50.932;4.442;2023-04-06T11:47:07;9.20;99.90
22418;DHT22;11376;50.932;4.442;2023-04-06T11:49:37;9.30;99.90
22418;DHT22;11376;50.932;4.442;2023-04-06T11:52:13;9.20;99.90
22418;DHT22;11376;50.932;4.442;2023-04-06T11:54:39;9.20;99.90
22418;DHT22;11376;50.932;4.442;2023-04-06T11:57:07;9.30;99.90
22418;DHT22;11376;50.932;4.442;2023-04-06T11:59:33;9.40;99.90
22418;DHT22;11376;50.932;4.442;2023-04-06T12:02:00;9.30;99.90
22418;DHT22;11376;50.932;4.442;2023-04-06T12:04:26;9.20;99.90
22418;DHT22;11376;50.932;4.442;2023-04-06T12:06:51;9.20;99.90
22418;DHT22;11376;50.932;4.442;2023-04-06T12:09:17;9.30;99.90
22418;DHT22;11376;50.932;4.442;2023-04-06T12:11:43;9.40;99.90
22418;DHT22;11376;50.932;4.442;2023-04-06T12:14:10;9.30;99.90
22418;DHT22;11376;50.932;4.442;2023-04-06T12:16:36;9.30;99.90
22418;DHT22;11376;50.932;4.442;2023-04-06T12:19:02;9.40;99.90
22418;DHT22;11376;50.932;4.442;2023-04-06T12:21:28;9.40;99.90
22418;DHT22;11376;50.932;4.442;2023-04-06T12:23:54;9.50;99.90
22418;DHT22;11376;50.932;4.442;2023-04-06T12:26:21;9.50;99.90
22418;DHT22;11376;50.932;4.442;2023-04-06T12:28:47;9.60;99.90
22418;DHT22;11376;50.932;4.442;2023-04-06T12:31:20;9.50;99.90
22418;DHT22;11376;50.932;4.442;2023-04-06T12:33:49;9.60;99.90
22418;DHT22;11376;50.932;4.442;2023-04-06T12:36:20;9.50;99.90
22418;DHT22;11376;50.932;4.442;2023-04-06T12:38:50;9.60;99.90
22418;DHT22;11376;50.932;4.442;2023-04-06T12:41:18;9.70;99.90
22418;DHT22;11376;50.932;4.442;2023-04-06T12:43:44;9.80;99.90
22418;DHT22;11376;50.932;4.442;2023-04-06T12:46:11;9.60;99.90
22418;DHT22;11376;50.932;4.442;2023-04-06T12:48:36;9.40;99.90
22418;DHT22;11376;50.932;4.442;2023-04-06T12:51:04;9.50;99.90
22418;DHT22;11376;50.932;4.442;2023-04-06T12:53:30;9.50;99.90
22418;DHT22;11376;50.932;4.442;2023-04-06T12:55:56;9.60;99.90
22418;DHT22;11376;50.932;4.442;2023-04-06T12:58:23;9.50;99.90
22418;DHT22;11376;50.932;4.442;2023-04-06T13:00:50;9.40;99.90
22418;DHT22;11376;50.932;4.442;2023-04-06T13:03:17;9.30;99.90
22418;DHT22;11376;50.932;4.442;2023-04-06T13:05:50;9.20;99.90
22418;DHT22;11376;50.932;4.442;2023-04-06T13:08:17;9.30;99.90
22418;DHT22;11376;50.932;4.442;2023-04-06T13:10:48;9.40;99.90
22418;DHT22;11376;50.932;4.442;2023-04-06T13:13:17;9.30;99.90
22418;DHT22;11376;50.932;4.442;2023-04-06T13:15:44;9.20;99.90
22418;DHT22;11376;50.932;4.442;2023-04-06T13:18:10;9.30;99.90
22418;DHT22;11376;50.932;4.442;2023-04-06T13:20:36;9.20;99.90
22418;DHT22;11376;50.932;4.442;2023-04-06T13:23:02;9.20;99.90
22418;DHT22;11376;50.932;4.442;2023-04-06T13:25:28;9.20;99.90
22418;DHT22;11376;50.932;4.442;2023-04-06T13:27:54;9.20;99.90
22418;DHT22;11376;50.932;4.442;2023-04-06T13:30:20;9.20;99.90
22418;DHT22;11376;50.932;4.442;2023-04-06T13:32:46;9.30;99.90
22418;DHT22;11376;50.932;4.442;2023-04-06T13:35:12;9.30;99.90
22418;DHT22;11376;50.932;4.442;2023-04-06T13:37:38;9.40;99.90
22418;DHT22;11376;50.932;4.442;2023-04-06T13:40:05;9.50;99.90
22418;DHT22;11376;50.932;4.442;2023-04-06T13:42:31;9.40;99.90
22418;DHT22;11376;50.932;4.442;2023-04-06T13:44:57;9.40;99.90
22418;DHT22;11376;50.932;4.442;2023-04-06T13:47:23;9.40;99.90
22418;DHT22;11376;50.932;4.442;2023-04-06T13:49:51;9.40;99.90
22418;DHT22;11376;50.932;4.442;2023-04-06T13:52:18;9.50;99.90
22418;DHT22;11376;50.932;4.442;2023-04-06T13:54:44;9.50;99.90
22418;DHT22;11376;50.932;4.442;2023-04-06T13:57:10;9.70;99.90
22418;DHT22;11376;50.932;4.442;2023-04-06T13:59:35;9.70;99.90
22418;DHT22;11376;50.932;4.442;2023-04-06T14:02:06;9.70;99.90
22418;DHT22;11376;50.932;4.442;2023-04-06T14:04:32;9.80;99.90
22418;DHT22;11376;50.932;4.442;2023-04-06T14:06:59;9.80;99.90
22418;DHT22;11376;50.932;4.442;2023-04-06T14:09:25;9.90;99.90
22418;DHT22;11376;50.932;4.442;2023-04-06T14:11:51;9.80;99.90
22418;DHT22;11376;50.932;4.442;2023-04-06T14:14:17;9.80;99.90
22418;DHT22;11376;50.932;4.442;2023-04-06T14:16:43;9.80;99.90
22418;DHT22;11376;50.932;4.442;2023-04-06T14:19:14;9.70;99.90
22418;DHT22;11376;50.932;4.442;2023-04-06T14:21:41;9.70;99.90
22418;DHT22;11376;50.932;4.442;2023-04-06T14:24:07;9.80;99.90
22418;DHT22;11376;50.932;4.442;2023-04-06T14:26:34;9.70;99.90
22418;DHT22;11376;50.932;4.442;2023-04-06T14:29:00;9.70;99.90
22418;DHT22;11376;50.932;4.442;2023-04-06T14:31:26;9.70;99.90
22418;DHT22;11376;50.932;4.442;2023-04-06T14:33:52;9.70;99.90
22418;DHT22;11376;50.932;4.442;2023-04-06T14:36:18;9.70;99.90
22418;DHT22;11376;50.932;4.442;2023-04-06T14:38:44;9.70;99.90
22418;DHT22;11376;50.932;4.442;2023-04-06T14:41:29;9.70;99.90
22418;DHT22;11376;50.932;4.442;2023-04-06T14:43:56;9.70;99.90
22418;DHT22;11376;50.932;4.442;2023-04-06T14:46:22;9.70;99.90
22418;DHT22;11376;50.932;4.442;2023-04-06T14:48:47;9.70;99.90
22418;DHT22;11376;50.932;4.442;2023-04-06T14:51:13;9.60;99.90
22418;DHT22;11376;50.932;4.442;2023-04-06T14:53:39;9.60;99.90
22418;DHT22;11376;50.932;4.442;2023-04-06T14:56:05;9.60;99.90
22418;DHT22;11376;50.932;4.442;2023-04-06T14:58:31;9.80;99.90
22418;DHT22;11376;50.932;4.442;2023-04-06T15:00:57;9.70;99.90
22418;DHT22;11376;50.932;4.442;2023-04-06T15:03:27;9.80;99.90
22418;DHT22;11376;50.932;4.442;2023-04-06T15:05:55;9.80;99.90
22418;DHT22;11376;50.932;4.442;2023-04-06T15:08:22;9.90;99.90
22418;DHT22;11376;50.932;4.442;2023-04-06T15:10:48;10.00;99.90
22418;DHT22;11376;50.932;4.442;2023-04-06T15:13:15;10.10;99.90
22418;DHT22;11376;50.932;4.442;2023-04-06T15:15:41;10.00;99.90
22418;DHT22;11376;50.932;4.442;2023-04-06T15:18:07;10.20;99.90
22418;DHT22;11376;50.932;4.442;2023-04-06T15:20:33;10.20;99.90
22418;DHT22;11376;50.932;4.442;2023-04-06T15:23:00;10.30;99.90
22418;DHT22;11376;50.932;4.442;2023-04-06T15:25:26;10.30;99.90
22418;DHT22;11376;50.932;4.442;2023-04-06T15:27:51;10.40;99.90
22418;DHT22;11376;50.932;4.442;2023-04-06T15:30:17;10.40;99.90
22418;DHT22;11376;50.932;4.442;2023-04-06T15:32:55;10.40;99.90
22418;DHT22;11376;50.932;4.442;2023-04-06T15:35:21;10.20;99.90
22418;DHT22;11376;50.932;4.442;2023-04-06T15:37:47;10.20;99.90
22418;DHT22;11376;50.932;4.442;2023-04-06T15:40:13;10.10;99.90
22418;DHT22;11376;50.932;4.442;2023-04-06T15:42:41;10.30;99.90
22418;DHT22;11376;50.932;4.442;2023-04-06T15:45:08;10.30;99.90
22418;DHT22;11376;50.932;4.442;2023-04-06T15:47:34;10.40;99.90